sensor_id;sensor_type;location;lat;lon;timestamp;temperature;humidity
42097;DHT22;27754;45.414;11.084;2023-06-24T00:00:12;23.20;67.10
42097;DHT22;27754;45.414;11.084;2023-06-24T00:02:43;23.00;67.30
42097;DHT22;27754;45.414;11.084;2023-06-24T00:05:12;23.00;67.30
42097;DHT22;27754;45.414;11.084;2023-06-24T00:07:39;22.90;67.20
42097;DHT22;27754;45.414;11.084;2023-06-24T00:10:13;22.90;67.30
42097;DHT22;27754;45.414;11.084;2023-06-24T00:12:41;22.90;67.60
42097;DHT22;27754;45.414;11.084;2023-06-24T00:15:09;22.90;67.90
42097;DHT22;27754;45.414;11.084;2023-06-24T00:17:36;22.90;67.80
42097;DHT22;27754;45.414;11.084;2023-06-24T00:20:04;23.00;67.60
42097;DHT22;27754;45.414;11.084;2023-06-24T00:22:34;23.00;67.50
42097;DHT22;27754;45.414;11.084;2023-06-24T00:25:01;23.10;67.80
42097;DHT22;27754;45.414;11.084;2023-06-24T00:27:28;23.10;67.90
42097;DHT22;27754;45.414;11.084;2023-06-24T00:29:55;23.00;67.60
42097;DHT22;27754;45.414;11.084;2023-06-24T00:32:22;23.10;67.50
42097;DHT22;27754;45.414;11.084;2023-06-24T00:34:49;23.00;68.10
42097;DHT22;27754;45.414;11.084;2023-06-24T00:37:17;22.90;69.20
42097;DHT22;27754;45.414;11.084;2023-06-24T00:39:44;22.70;70.10
42097;DHT22;27754;45.414;11.084;2023-06-24T00:42:11;22.60;70.80
42097;DHT22;27754;45.414;11.084;2023-06-24T00:44:38;22.40;71.10
42097;DHT22;27754;45.414;11.084;2023-06-24T00:47:06;22.40;71.10
42097;DHT22;27754;45.414;11.084;2023-06-24T00:49:35;22.40;70.90
42097;DHT22;27754;45.414;11.084;2023-06-24T00:52:02;22.50;70.40
42097;DHT22;27754;45.414;11.084;2023-06-24T00:54:31;22.40;70.30
42097;DHT22;27754;45.414;11.084;2023-06-24T00:56:59;22.40;70.90
42097;DHT22;27754;45.414;11.084;2023-06-24T00:59:29;22.30;70.90
42097;DHT22;27754;45.414;11.084;2023-06-24T01:01:58;22.20;70.40
42097;DHT22;27754;45.414;11.084;2023-06-24T01:04:28;22.10;71.10
42097;DHT22;27754;45.414;11.084;2023-06-24T01:06:56;22.10;71.00
42097;DHT22;27754;45.414;11.084;2023-06-24T01:09:24;22.20;71.50
42097;DHT22;27754;45.414;11.084;2023-06-24T01:11:52;22.20;71.80
42097;DHT22;27754;45.414;11.084;2023-06-24T01:14:19;22.20;72.00
42097;DHT22;27754;45.414;11.084;2023-06-24T01:16:59;22.20;72.00
42097;DHT22;27754;45.414;11.084;2023-06-24T01:30:57;22.40;72.40
42097;DHT22;27754;45.414;11.084;2023-06-24T01:33:45;22.50;72.50
42097;DHT22;27754;45.414;11.084;2023-06-24T01:36:18;22.50;72.00
42097;DHT22;27754;45.414;11.084;2023-06-24T01:38:54;22.50;72.20
42097;DHT22;27754;45.414;11.084;2023-06-24T01:41:24;22.50;72.50
42097;DHT22;27754;45.414;11.084;2023-06-24T01:43:53;22.40;72.70
42097;DHT22;27754;45.414;11.084;2023-06-24T01:46:25;22.40;73.10
42097;DHT22;27754;45.414;11.084;2023-06-24T01:48:55;22.40;73.20
42097;DHT22;27754;45.414;11.084;2023-06-24T01:51:25;22.40;73.70
42097;DHT22;27754;45.414;11.084;2023-06-24T01:54:03;22.40;74.10
42097;DHT22;27754;45.414;11.084;2023-06-24T01:56:32;22.30;74.60
42097;DHT22;27754;45.414;11.084;2023-06-24T01:59:02;22.20;75.20
42097;DHT22;27754;45.414;11.084;2023-06-24T02:01:35;22.10;75.50
42097;DHT22;27754;45.414;11.084;2023-06-24T02:04:08;22.10;75.60
42097;DHT22;27754;45.414;11.084;2023-06-24T02:06:37;22.10;75.80
42097;DHT22;27754;45.414;11.084;2023-06-24T02:09:05;22.00;75.90
42097;DHT22;27754;45.414;11.084;2023-06-24T02:11:33;21.90;76.10
42097;DHT22;27754;45.414;11.084;2023-06-24T02:14:03;21.90;76.90
42097;DHT22;27754;45.414;11.084;2023-06-24T02:16:33;21.80;77.60
42097;DHT22;27754;45.414;11.084;2023-06-24T02:19:02;21.80;77.30
42097;DHT22;27754;45.414;11.084;2023-06-24T02:21:31;21.80;77.60
42097;DHT22;27754;45.414;11.084;2023-06-24T02:23:58;21.80;77.80
42097;DHT22;27754;45.414;11.084;2023-06-24T02:26:26;21.90;77.50
42097;DHT22;27754;45.414;11.084;2023-06-24T02:28:54;22.00;77.40
42097;DHT22;27754;45.414;11.084;2023-06-24T02:31:22;21.90;77.30
42097;DHT22;27754;45.414;11.084;2023-06-24T02:33:50;22.00;77.10
42097;DHT22;27754;45.414;11.084;2023-06-24T02:36:18;21.90;77.10
42097;DHT22;27754;45.414;11.084;2023-06-24T02:38:45;22.00;76.80
42097;DHT22;27754;45.414;11.084;2023-06-24T02:41:12;22.10;76.90
42097;DHT22;27754;45.414;11.084;2023-06-24T02:43:41;22.10;76.70
42097;DHT22;27754;45.414;11.084;2023-06-24T02:46:09;22.10;76.70
42097;DHT22;27754;45.414;11.084;2023-06-24T02:48:39;22.30;76.30
42097;DHT22;27754;45.414;11.084;2023-06-24T02:51:07;22.30;76.10
42097;DHT22;27754;45.414;11.084;2023-06-24T02:53:38;22.30;76.10
42097;DHT22;27754;45.414;11.084;2023-06-24T02:56:06;22.30;76.00
42097;DHT22;27754;45.414;11.084;2023-06-24T02:58:39;22.10;76.00
42097;DHT22;27754;45.414;11.084;2023-06-24T03:01:21;22.00;76.00
42097;DHT22;27754;45.414;11.084;2023-06-24T03:03:54;22.00;76.70
42097;DHT22;27754;45.414;11.084;2023-06-24T03:06:22;21.90;76.80
42097;DHT22;27754;45.414;11.084;2023-06-24T03:08:54;21.90;76.60
42097;DHT22;27754;45.414;11.084;2023-06-24T03:11:22;21.90;76.90
42097;DHT22;27754;45.414;11.084;2023-06-24T03:13:49;22.00;76.70
42097;DHT22;27754;45.414;11.084;2023-06-24T03:16:22;21.90;76.40
42097;DHT22;27754;45.414;11.084;2023-06-24T03:18:54;21.90;76.50
42097;DHT22;27754;45.414;11.084;2023-06-24T03:21:21;22.00;76.50
42097;DHT22;27754;45.414;11.084;2023-06-24T03:24:04;21.90;75.70
42097;DHT22;27754;45.414;11.084;2023-06-24T03:26:34;21.70;74.90
42097;DHT22;27754;45.414;11.084;2023-06-24T03:29:03;21.60;74.50
42097;DHT22;27754;45.414;11.084;2023-06-24T03:31:32;21.60;74.20
42097;DHT22;27754;45.414;11.084;2023-06-24T03:33:59;21.60;73.90
42097;DHT22;27754;45.414;11.084;2023-06-24T03:36:27;21.50;73.90
42097;DHT22;27754;45.414;11.084;2023-06-24T03:38:54;21.50;73.70
42097;DHT22;27754;45.414;11.084;2023-06-24T03:41:21;21.40;73.20
42097;DHT22;27754;45.414;11.084;2023-06-24T03:43:48;21.40;73.50
42097;DHT22;27754;45.414;11.084;2023-06-24T03:46:15;21.30;74.00
42097;DHT22;27754;45.414;11.084;2023-06-24T03:48:43;21.20;73.90
42097;DHT22;27754;45.414;11.084;2023-06-24T03:51:12;21.10;74.00
42097;DHT22;27754;45.414;11.084;2023-06-24T03:53:39;21.20;74.10
42097;DHT22;27754;45.414;11.084;2023-06-24T03:56:06;21.30;73.90
42097;DHT22;27754;45.414;11.084;2023-06-24T03:58:33;21.60;73.50
42097;DHT22;27754;45.414;11.084;2023-06-24T04:01:02;22.10;72.20
42097;DHT22;27754;45.414;11.084;2023-06-24T04:03:29;22.70;71.00
42097;DHT22;27754;45.414;11.084;2023-06-24T04:05:59;23.10;69.90
42097;DHT22;27754;45.414;11.084;2023-06-24T04:08:28;23.50;68.70
42097;DHT22;27754;45.414;11.084;2023-06-24T04:11:00;23.80;68.00
42097;DHT22;27754;45.414;11.084;2023-06-24T04:13:27;24.00;67.10
42097;DHT22;27754;45.414;11.084;2023-06-24T04:15:54;24.20;66.30
42097;DHT22;27754;45.414;11.084;2023-06-24T04:18:21;24.40;65.90
42097;DHT22;27754;45.414;11.084;2023-06-24T04:20:48;24.60;64.90
42097;DHT22;27754;45.414;11.084;2023-06-24T04:23:15;24.50;63.90
42097;DHT22;27754;45.414;11.084;2023-06-24T04:25:43;24.60;63.20
42097;DHT22;27754;45.414;11.084;2023-06-24T04:28:10;24.70;62.90
42097;DHT22;27754;45.414;11.084;2023-06-24T04:30:37;25.00;60.60
42097;DHT22;27754;45.414;11.084;2023-06-24T04:33:08;25.20;59.50
42097;DHT22;27754;45.414;11.084;2023-06-24T04:35:36;25.40;59.30
42097;DHT22;27754;45.414;11.084;2023-06-24T04:38:04;25.50;58.90
42097;DHT22;27754;45.414;11.084;2023-06-24T04:40:32;25.40;58.70
42097;DHT22;27754;45.414;11.084;2023-06-24T04:42:59;25.10;59.70
42097;DHT22;27754;45.414;11.084;2023-06-24T04:45:26;24.90;61.40
42097;DHT22;27754;45.414;11.084;2023-06-24T04:47:53;24.40;62.80
42097;DHT22;27754;45.414;11.084;2023-06-24T04:50:20;24.30;62.70
42097;DHT22;27754;45.414;11.084;2023-06-24T04:52:52;24.00;63.80
42097;DHT22;27754;45.414;11.084;2023-06-24T04:55:22;24.10;62.80
42097;DHT22;27754;45.414;11.084;2023-06-24T04:57:49;24.30;62.30
42097;DHT22;27754;45.414;11.084;2023-06-24T05:00:16;24.50;62.60
42097;DHT22;27754;45.414;11.084;2023-06-24T05:02:43;24.90;61.70
42097;DHT22;27754;45.414;11.084;2023-06-24T05:05:10;25.00;62.00
42097;DHT22;27754;45.414;11.084;2023-06-24T05:07:37;25.30;61.70
42097;DHT22;27754;45.414;11.084;2023-06-24T05:10:06;25.60;61.30
42097;DHT22;27754;45.414;11.084;2023-06-24T05:12:33;25.70;61.00
42097;DHT22;27754;45.414;11.084;2023-06-24T05:15:00;26.10;61.80
42097;DHT22;27754;45.414;11.084;2023-06-24T05:17:27;26.20;60.10
42097;DHT22;27754;45.414;11.084;2023-06-24T05:19:54;26.80;60.70
42097;DHT22;27754;45.414;11.084;2023-06-24T05:22:21;27.10;59.90
42097;DHT22;27754;45.414;11.084;2023-06-24T05:24:48;27.30;60.80
42097;DHT22;27754;45.414;11.084;2023-06-24T05:27:15;27.60;59.90
42097;DHT22;27754;45.414;11.084;2023-06-24T05:29:44;27.60;60.30
42097;DHT22;27754;45.414;11.084;2023-06-24T05:32:11;27.90;59.90
42097;DHT22;27754;45.414;11.084;2023-06-24T05:34:38;28.00;60.00
42097;DHT22;27754;45.414;11.084;2023-06-24T05:37:05;28.00;60.00
42097;DHT22;27754;45.414;11.084;2023-06-24T05:39:32;27.90;59.90
42097;DHT22;27754;45.414;11.084;2023-06-24T05:41:59;27.80;60.40
42097;DHT22;27754;45.414;11.084;2023-06-24T05:44:26;27.90;60.40
42097;DHT22;27754;45.414;11.084;2023-06-24T05:46:53;27.90;61.50
42097;DHT22;27754;45.414;11.084;2023-06-24T05:49:20;28.00;60.00
42097;DHT22;27754;45.414;11.084;2023-06-24T05:51:47;27.80;61.10
42097;DHT22;27754;45.414;11.084;2023-06-24T05:54:14;28.00;60.20
42097;DHT22;27754;45.414;11.084;2023-06-24T05:56:41;27.90;61.10
42097;DHT22;27754;45.414;11.084;2023-06-24T05:59:08;27.90;60.70
42097;DHT22;27754;45.414;11.084;2023-06-24T06:01:35;28.00;59.90
42097;DHT22;27754;45.414;11.084;2023-06-24T06:04:02;28.30;60.00
42097;DHT22;27754;45.414;11.084;2023-06-24T06:06:29;28.30;59.00
42097;DHT22;27754;45.414;11.084;2023-06-24T06:08:57;28.20;59.30
42097;DHT22;27754;45.414;11.084;2023-06-24T06:11:24;28.30;59.50
42097;DHT22;27754;45.414;11.084;2023-06-24T06:13:51;28.60;59.10
42097;DHT22;27754;45.414;11.084;2023-06-24T06:16:19;28.80;58.30
42097;DHT22;27754;45.414;11.084;2023-06-24T06:18:46;28.90;57.70
42097;DHT22;27754;45.414;11.084;2023-06-24T06:21:13;28.90;57.80
42097;DHT22;27754;45.414;11.084;2023-06-24T06:23:40;29.20;57.10
42097;DHT22;27754;45.414;11.084;2023-06-24T06:26:07;29.30;56.10
42097;DHT22;27754;45.414;11.084;2023-06-24T06:28:34;29.60;56.10
42097;DHT22;27754;45.414;11.084;2023-06-24T06:31:01;29.70;55.70
42097;DHT22;27754;45.414;11.084;2023-06-24T06:33:28;29.80;55.50
42097;DHT22;27754;45.414;11.084;2023-06-24T06:35:55;30.00;57.00
42097;DHT22;27754;45.414;11.084;2023-06-24T06:38:22;30.20;55.90
42097;DHT22;27754;45.414;11.084;2023-06-24T06:40:49;30.30;55.90
42097;DHT22;27754;45.414;11.084;2023-06-24T06:43:16;30.40;55.80
42097;DHT22;27754;45.414;11.084;2023-06-24T06:45:43;30.50;55.40
42097;DHT22;27754;45.414;11.084;2023-06-24T06:48:10;30.60;54.60
42097;DHT22;27754;45.414;11.084;2023-06-24T06:50:37;30.60;54.40
42097;DHT22;27754;45.414;11.084;2023-06-24T06:53:04;30.50;55.00
42097;DHT22;27754;45.414;11.084;2023-06-24T06:55:31;30.60;53.70
42097;DHT22;27754;45.414;11.084;2023-06-24T06:57:58;30.80;52.20
42097;DHT22;27754;45.414;11.084;2023-06-24T07:00:25;30.90;49.50
42097;DHT22;27754;45.414;11.084;2023-06-24T07:02:52;30.90;50.90
42097;DHT22;27754;45.414;11.084;2023-06-24T07:05:20;31.00;48.90
42097;DHT22;27754;45.414;11.084;2023-06-24T07:07:47;30.90;50.30
42097;DHT22;27754;45.414;11.084;2023-06-24T07:10:16;31.00;48.80
42097;DHT22;27754;45.414;11.084;2023-06-24T07:12:46;30.90;50.20
42097;DHT22;27754;45.414;11.084;2023-06-24T07:15:14;30.80;49.40
42097;DHT22;27754;45.414;11.084;2023-06-24T07:17:41;30.70;49.70
42097;DHT22;27754;45.414;11.084;2023-06-24T07:20:09;30.80;49.40
42097;DHT22;27754;45.414;11.084;2023-06-24T07:22:36;30.80;49.30
42097;DHT22;27754;45.414;11.084;2023-06-24T07:25:03;30.80;49.20
42097;DHT22;27754;45.414;11.084;2023-06-24T07:27:30;30.60;49.40
42097;DHT22;27754;45.414;11.084;2023-06-24T07:29:57;30.90;49.00
42097;DHT22;27754;45.414;11.084;2023-06-24T07:32:24;30.80;47.00
42097;DHT22;27754;45.414;11.084;2023-06-24T07:34:51;30.80;49.10
42097;DHT22;27754;45.414;11.084;2023-06-24T07:37:18;30.90;48.90
42097;DHT22;27754;45.414;11.084;2023-06-24T07:39:51;31.20;47.10
42097;DHT22;27754;45.414;11.084;2023-06-24T07:42:18;31.10;46.70
42097;DHT22;27754;45.414;11.084;2023-06-24T07:44:46;30.90;47.10
42097;DHT22;27754;45.414;11.084;2023-06-24T07:47:15;30.90;45.40
42097;DHT22;27754;45.414;11.084;2023-06-24T07:49:42;31.10;46.30
42097;DHT22;27754;45.414;11.084;2023-06-24T07:52:09;31.20;47.20
42097;DHT22;27754;45.414;11.084;2023-06-24T07:54:36;31.40;45.80
42097;DHT22;27754;45.414;11.084;2023-06-24T07:57:04;31.30;45.50
42097;DHT22;27754;45.414;11.084;2023-06-24T07:59:31;31.70;44.20
42097;DHT22;27754;45.414;11.084;2023-06-24T08:01:58;31.90;43.80
42097;DHT22;27754;45.414;11.084;2023-06-24T08:04:25;31.90;43.60
42097;DHT22;27754;45.414;11.084;2023-06-24T08:06:52;31.90;43.40
42097;DHT22;27754;45.414;11.084;2023-06-24T08:09:19;31.80;44.20
42097;DHT22;27754;45.414;11.084;2023-06-24T08:11:47;32.00;41.90
42097;DHT22;27754;45.414;11.084;2023-06-24T08:14:14;32.20;41.80
42097;DHT22;27754;45.414;11.084;2023-06-24T08:16:41;32.00;42.40
42097;DHT22;27754;45.414;11.084;2023-06-24T08:19:08;32.00;43.50
42097;DHT22;27754;45.414;11.084;2023-06-24T08:21:35;32.10;42.50
42097;DHT22;27754;45.414;11.084;2023-06-24T08:24:05;32.40;42.70
42097;DHT22;27754;45.414;11.084;2023-06-24T08:26:32;32.30;42.10
42097;DHT22;27754;45.414;11.084;2023-06-24T08:28:59;32.20;43.60
42097;DHT22;27754;45.414;11.084;2023-06-24T08:31:30;31.90;42.90
42097;DHT22;27754;45.414;11.084;2023-06-24T08:33:59;31.50;44.30
42097;DHT22;27754;45.414;11.084;2023-06-24T08:36:27;31.80;43.20
42097;DHT22;27754;45.414;11.084;2023-06-24T08:38:56;31.80;43.80
42097;DHT22;27754;45.414;11.084;2023-06-24T08:41:23;31.80;43.20
42097;DHT22;27754;45.414;11.084;2023-06-24T08:43:53;32.00;41.20
42097;DHT22;27754;45.414;11.084;2023-06-24T08:46:24;31.80;41.20
42097;DHT22;27754;45.414;11.084;2023-06-24T08:49:02;31.90;41.20
42097;DHT22;27754;45.414;11.084;2023-06-24T08:51:31;32.00;41.60
42097;DHT22;27754;45.414;11.084;2023-06-24T08:54:02;32.40;41.90
42097;DHT22;27754;45.414;11.084;2023-06-24T08:56:29;32.40;41.70
42097;DHT22;27754;45.414;11.084;2023-06-24T08:58:56;32.30;40.40
42097;DHT22;27754;45.414;11.084;2023-06-24T09:01:24;32.40;39.80
42097;DHT22;27754;45.414;11.084;2023-06-24T09:03:52;32.40;39.40
42097;DHT22;27754;45.414;11.084;2023-06-24T09:06:19;32.50;39.90
42097;DHT22;27754;45.414;11.084;2023-06-24T09:08:56;32.40;39.20
42097;DHT22;27754;45.414;11.084;2023-06-24T09:11:27;32.30;37.90
42097;DHT22;27754;45.414;11.084;2023-06-24T09:13:59;32.50;40.10
42097;DHT22;27754;45.414;11.084;2023-06-24T09:16:26;32.50;39.40
42097;DHT22;27754;45.414;11.084;2023-06-24T09:18:53;32.30;40.60
42097;DHT22;27754;45.414;11.084;2023-06-24T09:21:27;31.80;39.80
42097;DHT22;27754;45.414;11.084;2023-06-24T09:23:59;32.20;40.10
42097;DHT22;27754;45.414;11.084;2023-06-24T09:26:27;32.10;40.10
42097;DHT22;27754;45.414;11.084;2023-06-24T09:28:57;32.30;39.80
42097;DHT22;27754;45.414;11.084;2023-06-24T09:31:24;32.40;40.90
42097;DHT22;27754;45.414;11.084;2023-06-24T09:33:51;32.30;41.90
42097;DHT22;27754;45.414;11.084;2023-06-24T09:36:18;32.50;41.40
42097;DHT22;27754;45.414;11.084;2023-06-24T09:38:45;32.40;40.30
42097;DHT22;27754;45.414;11.084;2023-06-24T09:41:13;32.30;40.60
42097;DHT22;27754;45.414;11.084;2023-06-24T09:43:42;32.30;39.60
42097;DHT22;27754;45.414;11.084;2023-06-24T09:46:14;31.80;40.30
42097;DHT22;27754;45.414;11.084;2023-06-24T09:48:43;32.00;40.50
42097;DHT22;27754;45.414;11.084;2023-06-24T09:51:11;31.80;39.50
42097;DHT22;27754;45.414;11.084;2023-06-24T09:53:38;32.00;39.80
42097;DHT22;27754;45.414;11.084;2023-06-24T09:56:10;32.00;40.30
42097;DHT22;27754;45.414;11.084;2023-06-24T09:58:38;32.00;37.80
42097;DHT22;27754;45.414;11.084;2023-06-24T10:01:07;31.90;38.90
42097;DHT22;27754;45.414;11.084;2023-06-24T10:03:36;32.00;38.20
42097;DHT22;27754;45.414;11.084;2023-06-24T10:06:05;32.30;39.30
42097;DHT22;27754;45.414;11.084;2023-06-24T10:08:32;32.40;37.50
42097;DHT22;27754;45.414;11.084;2023-06-24T10:11:00;32.50;38.10
42097;DHT22;27754;45.414;11.084;2023-06-24T10:13:29;32.70;39.40
42097;DHT22;27754;45.414;11.084;2023-06-24T10:15:56;32.80;38.50
42097;DHT22;27754;45.414;11.084;2023-06-24T10:18:37;32.20;38.40
42097;DHT22;27754;45.414;11.084;2023-06-24T10:21:07;32.50;39.00
42097;DHT22;27754;45.414;11.084;2023-06-24T10:29:10;32.00;40.40
42097;DHT22;27754;45.414;11.084;2023-06-24T10:42:33;32.60;38.70
42097;DHT22;27754;45.414;11.084;2023-06-24T10:47:57;31.90;37.90
42097;DHT22;27754;45.414;11.084;2023-06-24T10:50:26;31.90;39.70
42097;DHT22;27754;45.414;11.084;2023-06-24T10:52:53;31.90;40.60
42097;DHT22;27754;45.414;11.084;2023-06-24T10:55:25;31.70;39.80
42097;DHT22;27754;45.414;11.084;2023-06-24T10:58:07;31.40;40.40
42097;DHT22;27754;45.414;11.084;2023-06-24T11:00:39;31.50;39.70
42097;DHT22;27754;45.414;11.084;2023-06-24T11:03:16;31.40;40.00
42097;DHT22;27754;45.414;11.084;2023-06-24T11:05:46;31.70;39.60
42097;DHT22;27754;45.414;11.084;2023-06-24T11:08:15;31.70;41.00
42097;DHT22;27754;45.414;11.084;2023-06-24T11:10:46;31.80;41.20
42097;DHT22;27754;45.414;11.084;2023-06-24T11:13:14;32.00;40.60
42097;DHT22;27754;45.414;11.084;2023-06-24T11:15:42;31.70;39.40
42097;DHT22;27754;45.414;11.084;2023-06-24T11:18:09;31.80;39.70
42097;DHT22;27754;45.414;11.084;2023-06-24T11:20:38;31.80;39.50
42097;DHT22;27754;45.414;11.084;2023-06-24T11:23:09;31.80;39.40
42097;DHT22;27754;45.414;11.084;2023-06-24T11:25:42;31.90;39.70
42097;DHT22;27754;45.414;11.084;2023-06-24T11:28:17;31.90;40.50
42097;DHT22;27754;45.414;11.084;2023-06-24T11:30:49;32.20;39.50
42097;DHT22;27754;45.414;11.084;2023-06-24T11:33:27;32.30;40.20
42097;DHT22;27754;45.414;11.084;2023-06-24T11:35:54;32.40;39.20
42097;DHT22;27754;45.414;11.084;2023-06-24T11:38:22;32.30;39.40
42097;DHT22;27754;45.414;11.084;2023-06-24T11:40:49;32.50;39.50
42097;DHT22;27754;45.414;11.084;2023-06-24T11:43:16;32.50;39.90
42097;DHT22;27754;45.414;11.084;2023-06-24T11:45:43;32.60;39.70
42097;DHT22;27754;45.414;11.084;2023-06-24T11:48:10;32.40;39.30
42097;DHT22;27754;45.414;11.084;2023-06-24T11:50:37;32.30;39.40
42097;DHT22;27754;45.414;11.084;2023-06-24T11:53:04;32.40;39.70
42097;DHT22;27754;45.414;11.084;2023-06-24T11:55:31;32.30;39.90
42097;DHT22;27754;45.414;11.084;2023-06-24T11:58:00;32.00;39.80
42097;DHT22;27754;45.414;11.084;2023-06-24T12:00:30;32.30;39.40
42097;DHT22;27754;45.414;11.084;2023-06-24T12:03:04;32.30;39.00
42097;DHT22;27754;45.414;11.084;2023-06-24T12:05:37;32.40;39.20
42097;DHT22;27754;45.414;11.084;2023-06-24T12:08:09;32.60;39.40
42097;DHT22;27754;45.414;11.084;2023-06-24T12:10:38;32.60;40.40
42097;DHT22;27754;45.414;11.084;2023-06-24T12:13:06;32.60;40.80
42097;DHT22;27754;45.414;11.084;2023-06-24T12:15:35;32.80;39.30
42097;DHT22;27754;45.414;11.084;2023-06-24T12:18:03;32.80;38.80
42097;DHT22;27754;45.414;11.084;2023-06-24T12:20:30;32.80;40.10
42097;DHT22;27754;45.414;11.084;2023-06-24T12:23:03;32.90;40.60
42097;DHT22;27754;45.414;11.084;2023-06-24T12:25:30;32.70;38.30
42097;DHT22;27754;45.414;11.084;2023-06-24T12:27:58;32.60;38.90
42097;DHT22;27754;45.414;11.084;2023-06-24T12:30:27;32.70;38.80
42097;DHT22;27754;45.414;11.084;2023-06-24T12:32:54;32.70;39.40
42097;DHT22;27754;45.414;11.084;2023-06-24T12:35:22;32.70;40.30
42097;DHT22;27754;45.414;11.084;2023-06-24T12:37:52;32.90;39.20
42097;DHT22;27754;45.414;11.084;2023-06-24T12:40:19;32.80;39.40
42097;DHT22;27754;45.414;11.084;2023-06-24T12:42:46;32.70;40.00
42097;DHT22;27754;45.414;11.084;2023-06-24T12:45:14;32.70;38.00
42097;DHT22;27754;45.414;11.084;2023-06-24T12:47:41;32.90;39.70
42097;DHT22;27754;45.414;11.084;2023-06-24T12:50:08;32.90;37.80
42097;DHT22;27754;45.414;11.084;2023-06-24T12:52:36;33.00;38.20
42097;DHT22;27754;45.414;11.084;2023-06-24T12:55:05;32.90;38.30
42097;DHT22;27754;45.414;11.084;2023-06-24T12:57:34;32.90;38.00
42097;DHT22;27754;45.414;11.084;2023-06-24T13:00:01;33.00;38.80
42097;DHT22;27754;45.414;11.084;2023-06-24T13:02:28;32.90;38.00
42097;DHT22;27754;45.414;11.084;2023-06-24T13:04:55;33.20;37.90
42097;DHT22;27754;45.414;11.084;2023-06-24T13:07:23;33.10;37.10
42097;DHT22;27754;45.414;11.084;2023-06-24T13:09:50;32.80;37.90
42097;DHT22;27754;45.414;11.084;2023-06-24T13:12:17;32.70;37.40
42097;DHT22;27754;45.414;11.084;2023-06-24T13:14:44;32.70;38.20
42097;DHT22;27754;45.414;11.084;2023-06-24T13:17:11;33.00;37.90
42097;DHT22;27754;45.414;11.084;2023-06-24T13:19:38;33.10;37.70
42097;DHT22;27754;45.414;11.084;2023-06-24T13:22:05;33.10;37.80
42097;DHT22;27754;45.414;11.084;2023-06-24T13:24:32;33.10;38.40
42097;DHT22;27754;45.414;11.084;2023-06-24T13:26:59;33.00;37.80
42097;DHT22;27754;45.414;11.084;2023-06-24T13:29:26;33.10;36.80
42097;DHT22;27754;45.414;11.084;2023-06-24T13:31:54;32.90;37.50
42097;DHT22;27754;45.414;11.084;2023-06-24T13:34:21;32.90;38.00
42097;DHT22;27754;45.414;11.084;2023-06-24T13:36:48;32.90;37.50
42097;DHT22;27754;45.414;11.084;2023-06-24T13:39:15;32.90;38.00
42097;DHT22;27754;45.414;11.084;2023-06-24T13:41:45;32.90;37.30
42097;DHT22;27754;45.414;11.084;2023-06-24T13:44:12;32.90;37.50
42097;DHT22;27754;45.414;11.084;2023-06-24T13:46:39;32.80;37.20
42097;DHT22;27754;45.414;11.084;2023-06-24T13:49:06;32.70;37.50
42097;DHT22;27754;45.414;11.084;2023-06-24T13:51:33;32.70;37.60
42097;DHT22;27754;45.414;11.084;2023-06-24T13:54:00;32.80;37.50
42097;DHT22;27754;45.414;11.084;2023-06-24T13:56:27;32.90;37.70
42097;DHT22;27754;45.414;11.084;2023-06-24T13:58:56;33.00;37.70
42097;DHT22;27754;45.414;11.084;2023-06-24T14:01:23;33.10;37.60
42097;DHT22;27754;45.414;11.084;2023-06-24T14:03:51;33.20;37.50
42097;DHT22;27754;45.414;11.084;2023-06-24T14:06:21;33.10;37.80
42097;DHT22;27754;45.414;11.084;2023-06-24T14:08:49;33.00;37.80
42097;DHT22;27754;45.414;11.084;2023-06-24T14:11:17;33.20;38.10
42097;DHT22;27754;45.414;11.084;2023-06-24T14:13:45;33.10;37.90
42097;DHT22;27754;45.414;11.084;2023-06-24T14:16:12;33.20;37.70
42097;DHT22;27754;45.414;11.084;2023-06-24T14:18:39;33.20;38.10
42097;DHT22;27754;45.414;11.084;2023-06-24T14:21:07;33.20;38.10
42097;DHT22;27754;45.414;11.084;2023-06-24T14:23:34;33.30;38.20
42097;DHT22;27754;45.414;11.084;2023-06-24T14:26:03;33.40;37.50
42097;DHT22;27754;45.414;11.084;2023-06-24T14:28:30;33.20;38.10
42097;DHT22;27754;45.414;11.084;2023-06-24T14:30:57;33.20;37.30
42097;DHT22;27754;45.414;11.084;2023-06-24T14:33:24;33.30;38.20
42097;DHT22;27754;45.414;11.084;2023-06-24T14:35:51;33.40;37.60
42097;DHT22;27754;45.414;11.084;2023-06-24T14:38:18;33.10;37.30
42097;DHT22;27754;45.414;11.084;2023-06-24T14:40:45;32.80;37.50
42097;DHT22;27754;45.414;11.084;2023-06-24T14:43:13;33.00;37.60
42097;DHT22;27754;45.414;11.084;2023-06-24T14:45:40;32.70;37.60
42097;DHT22;27754;45.414;11.084;2023-06-24T14:48:07;32.40;38.00
42097;DHT22;27754;45.414;11.084;2023-06-24T14:50:34;32.60;38.70
42097;DHT22;27754;45.414;11.084;2023-06-24T14:53:02;32.90;38.00
42097;DHT22;27754;45.414;11.084;2023-06-24T14:55:29;33.20;37.40
42097;DHT22;27754;45.414;11.084;2023-06-24T14:57:56;33.10;37.10
42097;DHT22;27754;45.414;11.084;2023-06-24T15:00:24;33.00;37.10
42097;DHT22;27754;45.414;11.084;2023-06-24T15:02:51;33.20;37.50
42097;DHT22;27754;45.414;11.084;2023-06-24T15:05:18;33.40;37.60
42097;DHT22;27754;45.414;11.084;2023-06-24T15:07:45;33.30;37.90
42097;DHT22;27754;45.414;11.084;2023-06-24T15:10:12;33.40;37.80
42097;DHT22;27754;45.414;11.084;2023-06-24T15:12:39;33.40;37.50
42097;DHT22;27754;45.414;11.084;2023-06-24T15:15:07;33.40;37.40
42097;DHT22;27754;45.414;11.084;2023-06-24T15:17:34;33.30;37.30
42097;DHT22;27754;45.414;11.084;2023-06-24T15:20:03;33.30;37.50
42097;DHT22;27754;45.414;11.084;2023-06-24T15:22:30;32.80;37.80
42097;DHT22;27754;45.414;11.084;2023-06-24T15:24:57;32.60;38.90
42097;DHT22;27754;45.414;11.084;2023-06-24T15:27:24;32.80;39.00
42097;DHT22;27754;45.414;11.084;2023-06-24T15:29:51;32.70;39.20
42097;DHT22;27754;45.414;11.084;2023-06-24T15:32:18;32.60;39.40
42097;DHT22;27754;45.414;11.084;2023-06-24T15:34:45;33.00;39.00
42097;DHT22;27754;45.414;11.084;2023-06-24T15:37:12;32.90;38.90
42097;DHT22;27754;45.414;11.084;2023-06-24T15:39:42;32.80;38.50
42097;DHT22;27754;45.414;11.084;2023-06-24T15:42:09;32.80;38.10
42097;DHT22;27754;45.414;11.084;2023-06-24T15:44:38;32.60;38.80
42097;DHT22;27754;45.414;11.084;2023-06-24T15:47:05;33.10;38.50
42097;DHT22;27754;45.414;11.084;2023-06-24T15:49:32;33.20;38.50
42097;DHT22;27754;45.414;11.084;2023-06-24T15:51:59;33.10;37.90